createdAt,value
2018-10-18T00:00:44.932Z,70.83
2018-10-18T00:03:13.411Z,73.07
2018-10-18T00:05:41.820Z,74.83
2018-10-18T00:08:10.381Z,68.37
2018-10-18T00:10:38.659Z,66.07
2018-10-18T00:13:07.059Z,76.93
2018-10-18T00:15:35.445Z,64.57
2018-10-18T00:18:04.313Z,66.23
2018-10-18T00:20:33.958Z,76.77
2018-10-18T00:23:02.406Z,77.40
2018-10-18T00:25:30.797Z,72.10
2018-10-18T00:27:59.233Z,77.47
2018-10-18T00:30:27.638Z,75.73
2018-10-18T00:32:56.185Z,79.77
2018-10-18T00:35:24.628Z,76.07
2018-10-18T00:37:53.075Z,80.70
2018-10-18T00:40:21.477Z,75.57
2018-10-18T00:42:50.102Z,82.90
2018-10-18T00:45:18.659Z,78.50
2018-10-18T00:47:47.205Z,81.77
2018-10-18T00:50:15.694Z,74.40
2018-10-18T00:52:44.036Z,84.40
2018-10-18T00:55:12.603Z,79.67
2018-10-18T00:57:41.893Z,94.80
2018-10-18T01:00:11.468Z,86.30
2018-10-18T01:02:39.785Z,87.20
2018-10-18T01:05:08.302Z,88.73
2018-10-18T01:07:36.914Z,81.50
2018-10-18T01:10:05.408Z,86.07
2018-10-18T01:12:33.867Z,84.43
2018-10-18T01:15:02.441Z,88.97
2018-10-18T01:17:30.882Z,86.03
2018-10-18T01:19:59.310Z,88.13
2018-10-18T01:22:28.643Z,81.90
2018-10-18T01:24:57.064Z,87.40
2018-10-18T01:27:25.534Z,89.13
2018-10-18T01:29:53.961Z,92.70
2018-10-18T01:32:22.357Z,93.83
2018-10-18T01:34:50.828Z,88.03
2018-10-18T01:37:19.254Z,86.13
2018-10-18T01:39:47.840Z,95.10
2018-10-18T01:42:16.331Z,86.73
2018-10-18T01:44:52.318Z,93.50
2018-10-18T01:47:20.771Z,91.97
2018-10-18T01:49:49.294Z,88.13
2018-10-18T01:52:17.681Z,87.53
2018-10-18T01:54:46.286Z,89.47
2018-10-18T01:57:14.779Z,84.97
2018-10-18T01:59:43.222Z,83.50
2018-10-18T02:02:11.677Z,75.30
2018-10-18T02:04:40.141Z,85.70
2018-10-18T02:07:08.591Z,87.30
2018-10-18T02:09:37.022Z,73.07
2018-10-18T02:12:06.405Z,75.30
2018-10-18T02:14:34.725Z,77.80
2018-10-18T02:17:03.153Z,80.55
2018-10-18T02:19:31.670Z,81.80
2018-10-18T02:22:00.078Z,85.20
2018-10-18T02:24:28.518Z,78.20
2018-10-18T02:26:56.914Z,73.50
2018-10-18T02:29:25.373Z,70.83
2018-10-18T02:31:53.822Z,75.50
2018-10-18T02:34:22.213Z,73.23
2018-10-18T02:36:50.651Z,72.40
2018-10-18T02:39:19.106Z,66.50
2018-10-18T02:41:47.543Z,75.73
2018-10-18T02:44:16.073Z,73.53
2018-10-18T02:46:44.474Z,74.73
2018-10-18T02:49:12.901Z,70.83
2018-10-18T02:51:41.325Z,74.23
2018-10-18T02:54:09.879Z,73.50
2018-10-18T02:56:38.221Z,70.43
2018-10-18T02:59:06.718Z,76.40
2018-10-18T03:01:35.158Z,69.17
2018-10-18T03:04:03.599Z,65.27
2018-10-18T03:06:32.041Z,71.13
2018-10-18T03:09:00.573Z,72.50
2018-10-18T03:11:29.022Z,65.10
2018-10-18T03:13:57.754Z,72.73
2018-10-18T03:16:26.162Z,79.13
2018-10-18T03:18:54.669Z,68.50
2018-10-18T03:21:23.075Z,77.27
2018-10-18T03:23:51.532Z,78.20
2018-10-18T03:26:19.948Z,83.30
2018-10-18T03:28:48.403Z,90.33
2018-10-18T03:31:16.923Z,98.03
2018-10-18T03:33:45.310Z,90.53
2018-10-18T03:36:13.829Z,111.53
2018-10-18T03:38:42.175Z,108.23
2018-10-18T03:41:10.616Z,116.23
2018-10-18T03:43:39.045Z,119.90
2018-10-18T03:46:07.469Z,129.40
2018-10-18T03:48:35.942Z,125.30
2018-10-18T03:51:04.367Z,127.60
2018-10-18T03:53:32.821Z,132.63
2018-10-18T03:56:01.277Z,132.43
2018-10-18T03:58:29.677Z,133.27
2018-10-18T04:00:58.083Z,143.90
2018-10-18T04:03:26.589Z,143.53
2018-10-18T04:05:55.140Z,152.80
2018-10-18T04:08:23.542Z,160.30
2018-10-18T04:10:51.974Z,156.80
2018-10-18T04:13:20.452Z,137.80
2018-10-18T04:15:48.869Z,159.60
2018-10-18T04:18:17.266Z,157.80
2018-10-18T04:20:45.690Z,154.17
2018-10-18T04:23:18.242Z,171.40
2018-10-18T04:25:46.681Z,185.13
2018-10-18T04:28:15.046Z,169.43
2018-10-18T04:30:43.449Z,159.27
2018-10-18T04:33:11.822Z,144.70
2018-10-18T04:35:40.261Z,163.23
2018-10-18T04:38:08.682Z,157.63
2018-10-18T04:40:37.107Z,168.40
2018-10-18T04:43:05.906Z,154.20
2018-10-18T04:45:34.337Z,154.67
2018-10-18T04:48:02.909Z,152.50
2018-10-18T04:50:31.204Z,161.27
2018-10-18T04:52:59.575Z,164.20
2018-10-18T04:55:28.043Z,156.67
2018-10-18T04:57:56.444Z,155.90
2018-10-18T05:00:25.220Z,156.40
2018-10-18T05:02:53.666Z,124.93
2018-10-18T05:06:02.243Z,102.53
2018-10-18T05:08:30.906Z,100.90
2018-10-18T05:10:59.329Z,87.63
2018-10-18T05:13:27.869Z,80.87
2018-10-18T05:15:56.268Z,79.10
2018-10-18T05:18:24.994Z,70.77
2018-10-18T05:20:53.398Z,70.13
2018-10-18T05:23:21.833Z,72.20
2018-10-18T05:25:50.861Z,74.30
2018-10-18T05:28:19.462Z,68.87
2018-10-18T05:30:47.917Z,72.97
2018-10-18T05:33:16.301Z,63.73
2018-10-18T05:35:44.757Z,64.67
2018-10-18T05:38:13.150Z,70.40
2018-10-18T05:40:41.545Z,66.53
2018-10-18T05:43:10.029Z,68.50
2018-10-18T05:45:38.409Z,68.57
2018-10-18T05:48:07.402Z,68.73
2018-10-18T05:50:35.828Z,72.20
2018-10-18T05:53:04.303Z,66.33
2018-10-18T05:55:32.710Z,72.10
2018-10-18T05:58:01.080Z,68.10
2018-10-18T06:00:29.515Z,69.77
2018-10-18T06:02:57.938Z,73.77
2018-10-18T06:05:26.357Z,69.87
2018-10-18T06:07:54.749Z,76.13
2018-10-18T06:10:34.521Z,73.43
2018-10-18T06:13:02.890Z,75.00
2018-10-18T06:15:31.254Z,68.60
2018-10-18T06:17:59.664Z,66.80
2018-10-18T06:20:28.107Z,66.53
2018-10-18T06:22:57.724Z,66.63
2018-10-18T06:25:25.981Z,70.10
2018-10-18T06:27:54.389Z,72.83
2018-10-18T06:30:22.769Z,62.80
2018-10-18T06:32:51.204Z,72.83
2018-10-18T06:35:19.633Z,67.30
2018-10-18T06:37:48.157Z,58.10
2018-10-18T06:40:17.820Z,63.83
2018-10-18T06:42:46.248Z,65.03
2018-10-18T06:45:16.059Z,60.93
2018-10-18T06:47:44.844Z,60.97
2018-10-18T06:50:20.548Z,60.70
2018-10-18T06:52:49.078Z,56.43
2018-10-18T06:55:17.605Z,62.43
2018-10-18T06:58:18.409Z,60.43
2018-10-18T07:00:46.829Z,60.17
2018-10-18T07:03:15.322Z,61.80
2018-10-18T07:05:43.717Z,65.50
2018-10-18T07:08:12.180Z,61.53
2018-10-18T07:10:40.609Z,62.10
2018-10-18T07:13:09.046Z,62.60
2018-10-18T07:15:37.589Z,68.53
2018-10-18T07:18:06.195Z,63.43
2018-10-18T07:20:34.529Z,63.27
2018-10-18T07:23:02.966Z,62.73
2018-10-18T07:25:31.326Z,62.50
2018-10-18T07:27:59.774Z,62.47
2018-10-18T07:30:28.177Z,53.90
2018-10-18T07:32:57.253Z,68.40
2018-10-18T07:35:25.880Z,63.40
2018-10-18T07:37:54.347Z,59.80
2018-10-18T07:40:22.818Z,63.20
2018-10-18T07:42:51.336Z,58.07
2018-10-18T07:45:19.719Z,60.23
2018-10-18T07:47:49.003Z,59.57
2018-10-18T07:55:53.826Z,53.03
2018-10-18T07:58:22.379Z,61.47
2018-10-18T08:00:51.033Z,63.30
2018-10-18T08:03:19.444Z,61.33
2018-10-18T08:05:47.818Z,64.30
2018-10-18T08:08:16.228Z,58.40
2018-10-18T08:10:44.614Z,57.20
2018-10-18T08:13:13.305Z,56.77
2018-10-18T08:15:41.613Z,58.70
2018-10-18T08:18:10.250Z,55.63
2018-10-18T08:20:38.890Z,60.57
2018-10-18T08:23:07.494Z,58.73
2018-10-18T08:25:36.122Z,55.83
2018-10-18T08:28:04.577Z,55.20
2018-10-18T08:30:33.001Z,56.80
2018-10-18T08:33:01.458Z,63.33
2018-10-18T08:35:29.862Z,60.23
2018-10-18T08:37:58.668Z,64.50
2018-10-18T08:40:27.033Z,57.30
2018-10-18T08:42:55.486Z,59.13
2018-10-18T08:45:23.977Z,56.47
2018-10-18T08:47:52.478Z,62.20
2018-10-18T08:50:20.938Z,58.40
2018-10-18T08:52:55.408Z,60.10
2018-10-18T08:55:24.678Z,58.97
2018-10-18T08:57:53.511Z,57.87
2018-10-18T09:00:22.674Z,58.60
2018-10-18T09:02:51.255Z,63.27
2018-10-18T09:05:21.925Z,65.57
2018-10-18T09:07:52.030Z,60.23
2018-10-18T09:10:22.299Z,63.80
2018-10-18T09:12:50.728Z,61.77
2018-10-18T09:15:19.890Z,56.47
2018-10-18T09:17:49.304Z,60.57
2018-10-18T09:20:20.102Z,63.77
2018-10-18T09:22:50.778Z,57.10
2018-10-18T09:25:19.351Z,60.70
2018-10-18T09:27:47.905Z,58.00
2018-10-18T09:30:17.321Z,53.83
2018-10-18T09:32:46.845Z,59.70
2018-10-18T09:35:15.948Z,58.20
2018-10-18T09:37:44.945Z,59.20
2018-10-18T09:40:13.490Z,65.73
2018-10-18T09:42:41.905Z,55.73
2018-10-18T09:45:12.362Z,61.97
2018-10-18T09:47:44.457Z,60.20
2018-10-18T09:50:15.778Z,59.43
2018-10-18T09:52:46.825Z,60.43
2018-10-18T09:55:15.974Z,57.27
2018-10-18T09:57:44.283Z,63.27
2018-10-18T10:00:18.050Z,60.87
2018-10-18T10:02:49.522Z,59.23
2018-10-18T10:05:18.146Z,62.13
2018-10-18T10:07:46.816Z,51.50
2018-10-18T10:10:15.214Z,54.40
2018-10-18T10:12:50.209Z,54.93
2018-10-18T10:15:18.640Z,52.27
2018-10-18T10:17:47.204Z,49.73
2018-10-18T10:20:15.551Z,49.37
2018-10-18T10:22:43.994Z,54.87
2018-10-18T10:25:12.510Z,48.13
2018-10-18T10:27:40.858Z,47.23
2018-10-18T10:30:09.754Z,45.13
2018-10-18T10:32:38.166Z,46.40
2018-10-18T10:35:08.096Z,41.83
2018-10-18T10:37:36.589Z,50.07
2018-10-18T10:40:05.997Z,48.87
2018-10-18T10:42:34.382Z,54.90
2018-10-18T10:45:02.898Z,45.67
2018-10-18T10:47:38.425Z,48.67
2018-10-18T10:50:07.416Z,46.53
2018-10-18T10:52:36.298Z,50.57
2018-10-18T10:55:05.015Z,47.13
2018-10-18T10:57:35.453Z,45.20
2018-10-18T11:00:04.052Z,45.60
2018-10-18T11:02:32.442Z,47.07
2018-10-18T11:05:00.842Z,44.70
2018-10-18T11:07:29.406Z,45.67
2018-10-18T11:09:58.028Z,46.30
2018-10-18T11:12:26.454Z,48.53
2018-10-18T11:14:54.852Z,43.97
2018-10-18T11:17:23.250Z,43.97
2018-10-18T11:19:51.743Z,44.40
2018-10-18T11:22:20.137Z,43.37
2018-10-18T11:24:48.639Z,45.80
2018-10-18T11:27:16.990Z,48.37
2018-10-18T11:29:45.397Z,40.20
2018-10-18T11:32:17.271Z,42.10
2018-10-18T11:34:45.628Z,40.30
2018-10-18T11:37:14.333Z,38.70
2018-10-18T11:39:42.765Z,37.23
2018-10-18T11:42:11.255Z,34.47
2018-10-18T11:44:41.797Z,35.93
2018-10-18T11:47:12.424Z,38.70
2018-10-18T11:49:41.483Z,36.00
2018-10-18T11:52:09.895Z,37.80
2018-10-18T11:54:38.309Z,36.37
2018-10-18T11:57:06.735Z,35.00
2018-10-18T11:59:35.166Z,32.43
2018-10-18T12:02:03.790Z,33.23
2018-10-18T12:04:32.178Z,36.77
2018-10-18T12:07:00.577Z,33.57
2018-10-18T12:09:28.990Z,33.60
2018-10-18T12:11:57.385Z,36.23
2018-10-18T12:14:25.849Z,34.70
2018-10-18T12:16:54.292Z,31.67
2018-10-18T12:19:22.721Z,34.57
2018-10-18T12:21:56.702Z,32.90
2018-10-18T12:24:25.153Z,31.53
2018-10-18T12:26:53.630Z,35.70
2018-10-18T12:29:22.051Z,36.70
2018-10-18T12:31:51.919Z,38.67
2018-10-18T12:34:20.362Z,37.83
2018-10-18T12:36:48.776Z,38.50
2018-10-18T12:39:17.230Z,40.00
2018-10-18T12:41:45.766Z,40.07
2018-10-18T12:44:14.248Z,37.50
2018-10-18T12:46:43.056Z,41.80
2018-10-18T12:49:12.467Z,43.37
2018-10-18T12:51:40.881Z,42.03
2018-10-18T12:54:09.623Z,42.17
2018-10-18T12:56:38.076Z,42.73
2018-10-18T12:59:06.513Z,42.17
2018-10-18T13:01:34.933Z,39.60
2018-10-18T13:04:03.421Z,43.13
2018-10-18T13:06:31.858Z,41.07
2018-10-18T13:09:00.263Z,40.47
2018-10-18T13:11:28.686Z,40.73
2018-10-18T13:13:57.114Z,39.30
2018-10-18T13:16:25.561Z,36.33
2018-10-18T13:18:54.011Z,36.73
2018-10-18T13:21:22.430Z,40.17
2018-10-18T13:23:50.907Z,34.73
2018-10-18T13:26:19.443Z,38.37
2018-10-18T13:28:47.829Z,35.30
2018-10-18T13:31:16.525Z,36.50
2018-10-18T13:33:45.101Z,32.83
2018-10-18T13:36:13.733Z,33.20
2018-10-18T13:38:42.201Z,32.40
2018-10-18T13:41:10.692Z,31.73
2018-10-18T13:43:39.144Z,29.43
2018-10-18T13:46:07.615Z,29.10
2018-10-18T13:48:36.026Z,20.77
2018-10-18T13:51:05.334Z,20.80
2018-10-18T13:53:38.533Z,18.10
2018-10-18T13:56:07.104Z,20.20
2018-10-18T13:58:35.554Z,21.07
2018-10-18T14:01:04.001Z,20.90
2018-10-18T14:03:32.415Z,19.97
2018-10-18T14:06:00.909Z,17.80
2018-10-18T14:08:29.490Z,17.40
2018-10-18T14:10:57.793Z,17.07
2018-10-18T14:13:26.346Z,18.57
2018-10-18T14:15:54.839Z,18.67
2018-10-18T14:18:23.357Z,15.60
2018-10-18T14:20:51.905Z,15.23
2018-10-18T14:23:20.489Z,15.37
2018-10-18T14:25:48.818Z,15.60
2018-10-18T14:28:17.233Z,17.20
2018-10-18T14:30:45.699Z,16.27
2018-10-18T14:33:14.086Z,16.40
2018-10-18T14:35:42.514Z,19.00
2018-10-18T14:38:11.013Z,16.23
2018-10-18T14:40:39.400Z,16.07
2018-10-18T14:43:07.800Z,27.83
2018-10-18T14:45:37.249Z,17.53
2018-10-18T14:48:06.701Z,130.60
2018-10-18T14:50:35.308Z,19.23
2018-10-18T14:53:03.583Z,26.67
2018-10-18T14:55:32.266Z,19.50
2018-10-18T14:58:00.723Z,12.97
2018-10-18T15:00:29.144Z,11.10
2018-10-18T15:02:58.307Z,10.47
2018-10-18T15:05:26.691Z,12.10
2018-10-18T15:07:55.122Z,10.63
2018-10-18T15:10:23.585Z,8.77
2018-10-18T15:12:52.645Z,8.80
2018-10-18T15:15:21.030Z,11.10
2018-10-18T15:17:50.038Z,10.63
2018-10-18T15:20:18.486Z,11.20
2018-10-18T15:22:46.946Z,10.77
2018-10-18T15:25:16.076Z,10.57
2018-10-18T15:27:44.608Z,10.20
2018-10-18T15:30:13.488Z,9.53
2018-10-18T15:32:41.892Z,8.90
2018-10-18T15:35:11.297Z,8.80
2018-10-18T15:37:40.349Z,10.27
2018-10-18T15:40:08.966Z,8.40
2018-10-18T15:42:38.057Z,8.33
2018-10-18T15:45:07.270Z,8.60
2018-10-18T15:47:35.708Z,7.67
2018-10-18T15:50:04.563Z,9.13
2018-10-18T15:52:33.207Z,10.00
2018-10-18T15:55:01.637Z,9.63
2018-10-18T15:57:30.350Z,10.60
2018-10-18T15:59:59.779Z,9.80
2018-10-18T16:02:28.289Z,9.77
2018-10-18T16:04:57.679Z,10.10
2018-10-18T16:07:26.302Z,9.93
2018-10-18T16:09:54.707Z,9.10
2018-10-18T16:12:23.128Z,9.20
2018-10-18T16:14:51.597Z,9.30
2018-10-18T16:17:20.213Z,12.07
2018-10-18T16:19:48.595Z,7.77
2018-10-18T16:22:17.042Z,7.97
2018-10-18T16:24:45.454Z,10.87
2018-10-18T16:27:13.945Z,8.73
2018-10-18T16:29:42.568Z,8.23
2018-10-18T16:32:11.915Z,11.27
2018-10-18T16:34:40.645Z,8.40
2018-10-18T16:37:10.049Z,8.10
2018-10-18T16:39:38.692Z,8.07
2018-10-18T16:42:07.198Z,9.27
2018-10-18T16:44:35.574Z,8.80
2018-10-18T16:47:03.973Z,8.27
2018-10-18T16:49:32.435Z,8.40
2018-10-18T16:52:00.901Z,7.93
2018-10-18T16:54:29.311Z,8.73
2018-10-18T16:56:57.681Z,9.63
2018-10-18T16:59:26.130Z,8.30
2018-10-18T17:01:54.546Z,8.43
2018-10-18T17:04:23.217Z,8.40
2018-10-18T17:06:51.572Z,9.37
2018-10-18T17:09:23.428Z,9.83
2018-10-18T17:11:53.444Z,7.83
2018-10-18T17:14:21.937Z,7.70
2018-10-18T17:16:51.606Z,8.63
2018-10-18T17:19:20.033Z,9.30
2018-10-18T17:21:48.419Z,7.37
2018-10-18T17:24:17.813Z,7.93
2018-10-18T17:26:46.210Z,8.23
2018-10-18T17:29:14.714Z,7.73
2018-10-18T17:31:44.345Z,8.53
2018-10-18T17:34:12.957Z,8.70
2018-10-18T17:36:41.359Z,8.83
2018-10-18T17:39:14.534Z,8.80
2018-10-18T17:41:43.118Z,10.37
2018-10-18T17:44:12.779Z,8.53
2018-10-18T17:46:41.147Z,9.30
2018-10-18T17:49:09.786Z,8.77
2018-10-18T17:51:41.525Z,10.67
2018-10-18T17:54:12.256Z,9.00
2018-10-18T17:56:45.033Z,8.13
2018-10-18T17:59:13.731Z,8.67
2018-10-18T18:01:42.745Z,9.50
2018-10-18T18:04:11.350Z,8.57
2018-10-18T18:06:39.876Z,8.57
2018-10-18T18:09:08.849Z,8.53
2018-10-18T18:11:37.923Z,9.60
2018-10-18T18:14:06.894Z,9.10
2018-10-18T18:16:36.312Z,9.07
2018-10-18T18:19:05.035Z,9.07
2018-10-18T18:21:34.047Z,8.70
2018-10-18T18:24:02.694Z,10.63
2018-10-18T18:26:45.074Z,9.13
2018-10-18T18:29:02.310Z,10.00
2018-10-18T18:31:31.220Z,10.57
2018-10-18T18:34:07.578Z,10.07
2018-10-18T18:36:36.416Z,12.57
2018-10-18T18:39:07.138Z,12.13
2018-10-18T18:41:36.034Z,14.23
2018-10-18T18:44:05.984Z,14.27
2018-10-18T18:46:34.671Z,18.70
2018-10-18T18:49:12.806Z,12.47
2018-10-18T18:51:41.750Z,12.60
2018-10-18T18:54:11.079Z,15.57
2018-10-18T18:56:40.102Z,15.47
2018-10-18T18:59:08.542Z,18.13
2018-10-18T19:01:37.277Z,14.23
2018-10-18T19:04:11.194Z,11.63
2018-10-18T19:06:43.490Z,12.37
2018-10-18T19:09:17.394Z,11.23
2018-10-18T19:11:46.197Z,12.33
2018-10-18T19:14:17.285Z,13.53
2018-10-18T19:16:46.111Z,15.37
2018-10-18T19:19:14.926Z,11.63
2018-10-18T19:21:43.979Z,11.73
2018-10-18T19:24:15.738Z,15.83
2018-10-18T19:26:45.365Z,11.67
2018-10-18T19:29:14.797Z,13.80
2018-10-18T19:31:45.439Z,13.80
2018-10-18T19:34:15.213Z,12.33
2018-10-18T19:39:53.875Z,12.87
2018-10-18T19:42:23.098Z,10.73
2018-10-18T19:44:58.121Z,12.23
2018-10-18T19:47:27.074Z,11.57
2018-10-18T19:49:55.860Z,11.63
2018-10-18T19:52:25.280Z,12.83
2018-10-18T19:54:54.007Z,12.43
2018-10-18T19:57:22.772Z,12.63
2018-10-18T19:59:51.670Z,12.37
2018-10-18T20:02:20.467Z,15.23
2018-10-18T20:04:49.182Z,13.73
2018-10-18T20:07:18.003Z,16.27
2018-10-18T20:09:46.904Z,13.37
2018-10-18T20:12:15.894Z,14.83
2018-10-18T20:14:44.883Z,14.20
2018-10-18T20:17:14.098Z,13.83
2018-10-18T20:19:42.885Z,13.73
2018-10-18T20:22:15.660Z,13.27
2018-10-18T20:24:44.516Z,12.20
2018-10-18T20:27:14.013Z,14.20
2018-10-18T20:29:42.927Z,14.57
2018-10-18T20:32:11.794Z,14.37
2018-10-18T20:34:40.587Z,14.40
2018-10-18T20:37:09.824Z,15.17
2018-10-18T20:39:38.688Z,13.43
2018-10-18T20:42:07.942Z,16.27
2018-10-18T20:44:36.787Z,17.77
2018-10-18T20:47:05.666Z,16.00
2018-10-18T20:49:34.742Z,18.80
2018-10-18T20:52:03.554Z,18.23
2018-10-18T20:54:32.206Z,15.57
2018-10-18T20:57:01.012Z,14.63
2018-10-18T20:59:30.025Z,14.40
2018-10-18T21:01:58.647Z,15.83
2018-10-18T21:04:27.402Z,14.80
2018-10-18T21:06:56.420Z,14.67
2018-10-18T21:09:25.298Z,16.33
2018-10-18T21:11:53.932Z,14.50
2018-10-18T21:14:23.290Z,13.93
2018-10-18T21:16:52.491Z,14.67
2018-10-18T21:19:21.199Z,13.50
2018-10-18T21:21:50.141Z,14.47
2018-10-18T21:24:18.832Z,16.13
2018-10-18T21:26:47.430Z,13.37
2018-10-18T21:29:16.240Z,15.73
2018-10-18T21:31:44.893Z,16.03
2018-10-18T21:34:15.155Z,15.93
2018-10-18T21:36:44.188Z,15.50
2018-10-18T21:39:12.999Z,13.47
2018-10-18T21:41:41.798Z,11.97
2018-10-18T21:44:11.398Z,13.10
2018-10-18T21:46:40.358Z,12.83
2018-10-18T21:49:22.751Z,13.23
2018-10-18T21:51:54.894Z,13.77
2018-10-18T21:54:24.690Z,14.00
2018-10-18T21:56:53.169Z,13.37
2018-10-18T21:59:21.642Z,14.90
2018-10-18T22:01:50.130Z,12.77
2018-10-18T22:04:18.708Z,17.67
2018-10-18T22:06:48.256Z,12.00
2018-10-18T22:09:17.224Z,12.07
2018-10-18T22:11:45.795Z,13.70
2018-10-18T22:14:14.893Z,12.53
2018-10-18T22:16:44.165Z,13.03
2018-10-18T22:19:19.266Z,14.33
2018-10-18T22:21:48.005Z,16.17
2018-10-18T22:24:17.220Z,15.27
2018-10-18T22:26:46.193Z,16.40
2018-10-18T22:29:14.745Z,17.80
2018-10-18T22:31:43.197Z,17.90
2018-10-18T22:34:11.669Z,17.83
2018-10-18T22:36:40.327Z,21.03
2018-10-18T22:39:10.212Z,18.80
2018-10-18T22:41:38.653Z,27.50
2018-10-18T22:44:07.814Z,24.83
2018-10-18T22:46:37.026Z,22.70
2018-10-18T22:49:05.875Z,27.17
2018-10-18T22:51:34.950Z,21.10
2018-10-18T22:54:03.902Z,19.00
2018-10-18T22:56:32.956Z,20.03
2018-10-18T22:59:01.970Z,18.67
2018-10-18T23:01:30.975Z,22.03
2018-10-18T23:03:59.869Z,21.97
2018-10-18T23:06:28.721Z,24.33
2018-10-18T23:08:58.749Z,23.70
2018-10-18T23:11:27.407Z,26.03
2018-10-18T23:13:56.217Z,26.07
2018-10-18T23:16:25.112Z,27.00
2018-10-18T23:18:54.313Z,22.73
2018-10-18T23:21:22.944Z,24.37
2018-10-18T23:23:51.786Z,23.97
2018-10-18T23:26:20.563Z,24.97
2018-10-18T23:28:49.235Z,25.57
2018-10-18T23:31:18.165Z,22.63
2018-10-18T23:33:46.818Z,25.57
2018-10-18T23:36:15.728Z,22.67
2018-10-18T23:38:44.360Z,22.63
2018-10-18T23:41:13.212Z,23.20
2018-10-18T23:43:41.831Z,24.10
2018-10-18T23:46:10.719Z,21.60
2018-10-18T23:48:39.758Z,23.77
2018-10-18T23:51:08.565Z,21.70
2018-10-18T23:53:37.707Z,27.07
2018-10-18T23:56:06.490Z,32.57
2018-10-18T23:58:35.283Z,28.50
